Time;durP1;ratioP1;P1;durP2;ratioP2;P2;SDS_P1;SDS_P2;PMS_P1;PMS_P2;Temp;Humidity;BMP_temperature;BMP_pressure;BME280_temperature;BME280_humidity;BME280_pressure;Samples;Min_cycle;Max_cycle;Signal;HPM_P1;HPM_P2
2022/04/05 00:01:11;;;;;;;37.53;18.02;;;;;;;;;;5032653;28;20381;-44
2022/04/05 00:03:36;;;;;;;36.55;20.13;;;;;;;;;;5032533;28;20416;-48
2022/04/05 00:06:02;;;;;;;37.42;20.02;;;;;;;;;;5032533;28;20087;-47
2022/04/05 00:08:27;;;;;;;42.63;20.92;;;;;;;;;;5032798;28;20022;-48
2022/04/05 00:10:52;;;;;;;33.40;18.83;;;;;;;;;;5032525;28;20022;-44
2022/04/05 00:13:18;;;;;;;36.72;19.27;;;;;;;;;;5036532;28;20053;-46
2022/04/05 00:15:43;;;;;;;35.33;18.85;;;;;;;;;;5035203;28;20423;-44
2022/04/05 00:18:08;;;;;;;38.95;19.13;;;;;;;;;;5036261;28;20052;-44
2022/04/05 00:20:34;;;;;;;39.85;21.75;;;;;;;;;;5036305;28;20030;-44
2022/04/05 00:22:59;;;;;;;35.08;19.20;;;;;;;;;;5036094;28;20029;-45
2022/04/05 00:25:24;;;;;;;32.72;17.60;;;;;;;;;;5036322;28;20037;-44
2022/04/05 00:27:50;;;;;;;36.65;18.80;;;;;;;;;;5036213;28;20025;-44
2022/04/05 00:30:15;;;;;;;37.90;20.42;;;;;;;;;;5036186;28;20021;-44
2022/04/05 00:32:41;;;;;;;38.35;20.27;;;;;;;;;;5036028;28;20457;-45
2022/04/05 00:35:08;;;;;;;37.63;19.60;;;;;;;;;;5036067;28;20037;-46
2022/04/05 00:37:33;;;;;;;34.65;19.33;;;;;;;;;;5035958;28;20021;-46
2022/04/05 00:39:58;;;;;;;35.10;19.00;;;;;;;;;;5034705;28;20457;-44
2022/04/05 00:42:24;;;;;;;43.15;20.75;;;;;;;;;;5035792;28;20384;-44
2022/04/05 00:44:49;;;;;;;38.40;20.05;;;;;;;;;;5035804;28;20032;-44
2022/04/05 00:47:18;;;;;;;38.38;20.23;;;;;;;;;;5034710;28;20021;-44
2022/04/05 00:49:44;;;;;;;41.67;20.45;;;;;;;;;;5035614;28;20353;-44
2022/04/05 00:52:10;;;;;;;33.15;17.38;;;;;;;;;;5035372;28;20097;-45
2022/04/05 00:54:36;;;;;;;34.60;18.42;;;;;;;;;;5035682;28;20045;-46
2022/04/05 00:57:01;;;;;;;35.42;18.75;;;;;;;;;;5034341;28;20075;-44
2022/04/05 00:59:29;;;;;;;34.63;18.50;;;;;;;;;;5035767;28;20017;-45
2022/04/05 01:01:55;;;;;;;41.17;19.45;;;;;;;;;;5035515;28;20346;-44
2022/04/05 01:04:21;;;;;;;39.63;20.90;;;;;;;;;;5035303;28;20037;-45
2022/04/05 01:06:47;;;;;;;38.05;18.52;;;;;;;;;;5035177;28;20083;-44
2022/04/05 01:09:13;;;;;;;34.47;19.73;;;;;;;;;;5035642;28;20021;-45
2022/04/05 01:11:38;;;;;;;35.65;19.17;;;;;;;;;;5035472;28;20109;-45
2022/04/05 01:14:04;;;;;;;45.85;18.73;;;;;;;;;;5035321;28;20053;-45
2022/04/05 01:16:30;;;;;;;37.90;18.65;;;;;;;;;;5035136;28;20052;-44
2022/04/05 01:18:55;;;;;;;33.78;19.73;;;;;;;;;;5035308;28;20017;-45
2022/04/05 01:21:20;;;;;;;35.25;18.13;;;;;;;;;;5035245;28;20021;-47
2022/04/05 01:24:05;;;;;;;36.20;17.50;;;;;;;;;;5035020;28;20097;-47
2022/04/05 01:26:49;;;;;;;39.45;18.23;;;;;;;;;;5035108;28;20022;-48
2022/04/05 01:29:15;;;;;;;40.33;18.60;;;;;;;;;;5034946;28;20436;-46
2022/04/05 01:31:44;;;;;;;36.40;20.70;;;;;;;;;;5034857;28;20053;-44
2022/04/05 01:34:10;;;;;;;;;;;;;;;;;;5035290;28;20136;-45
2022/04/05 01:36:45;;;;;;;35.00;18.42;;;;;;;;;;5035076;28;19905;-44
2022/04/05 01:39:11;;;;;;;33.80;17.30;;;;;;;;;;5035530;28;20057;-46
2022/04/05 01:41:37;;;;;;;34.35;18.90;;;;;;;;;;5034799;28;20392;-45
2022/04/05 01:44:03;;;;;;;32.83;17.65;;;;;;;;;;5034686;28;20060;-45
2022/04/05 01:46:28;;;;;;;34.95;17.98;;;;;;;;;;5034677;28;20107;-45
2022/04/05 01:48:53;;;;;;;34.40;18.33;;;;;;;;;;5034867;28;20457;-44
2022/04/05 01:51:19;;;;;;;40.33;19.08;;;;;;;;;;5034575;28;20033;-45
2022/04/05 01:53:44;;;;;;;33.67;17.13;;;;;;;;;;5034725;28;20029;-46
2022/04/05 01:56:09;;;;;;;33.08;17.27;;;;;;;;;;5034433;28;20053;-44
2022/04/05 01:58:35;;;;;;;32.00;18.00;;;;;;;;;;5034703;28;20488;-44
2022/04/05 02:01:02;;;;;;;32.55;17.42;;;;;;;;;;5034449;28;20029;-45
2022/04/05 02:03:28;;;;;;;33.47;18.25;;;;;;;;;;5034186;28;20476;-46
2022/04/05 02:05:53;;;;;;;32.70;16.33;;;;;;;;;;5033138;28;20044;-44
2022/04/05 02:08:18;;;;;;;29.75;17.67;;;;;;;;;;5034539;28;20539;-46
2022/04/05 02:10:43;;;;;;;31.08;17.48;;;;;;;;;;5034361;28;20104;-44
2022/04/05 02:13:09;;;;;;;35.60;18.42;;;;;;;;;;5034361;28;20021;-45
2022/04/05 02:15:34;;;;;;;31.70;18.08;;;;;;;;;;5034116;28;20025;-45
2022/04/05 02:17:59;;;;;;;32.25;17.55;;;;;;;;;;5033886;28;20022;-46
2022/04/05 02:20:25;;;;;;;33.47;18.75;;;;;;;;;;5034252;28;20108;-48
2022/04/05 02:22:50;;;;;;;33.90;17.92;;;;;;;;;;5034266;28;20037;-46
2022/04/05 02:25:17;;;;;;;35.28;19.77;;;;;;;;;;5034093;28;20045;-46
2022/04/05 02:27:42;;;;;;;38.97;18.63;;;;;;;;;;5033848;28;20056;-45
2022/04/05 02:30:07;;;;;;;37.97;20.17;;;;;;;;;;5033846;28;20025;-44
2022/04/05 02:32:33;;;;;;;36.58;19.60;;;;;;;;;;5033523;28;20028;-44
2022/04/05 02:34:58;;;;;;;39.67;19.92;;;;;;;;;;5033488;28;20591;-45
2022/04/05 02:37:23;;;;;;;34.17;19.63;;;;;;;;;;5033859;28;20024;-45
2022/04/05 02:39:48;;;;;;;38.13;20.38;;;;;;;;;;5033909;28;20040;-44
2022/04/05 02:42:14;;;;;;;36.97;18.60;;;;;;;;;;5033695;28;20025;-45
2022/04/05 02:44:39;;;;;;;34.13;19.02;;;;;;;;;;5033463;28;20040;-46
2022/04/05 02:47:04;;;;;;;33.95;18.63;;;;;;;;;;5033402;28;20092;-45
2022/04/05 02:49:30;;;;;;;42.85;19.20;;;;;;;;;;5033334;28;20043;-44
2022/04/05 02:51:55;;;;;;;42.90;20.83;;;;;;;;;;5033576;28;20037;-45
2022/04/05 02:54:21;;;;;;;43.28;20.63;;;;;;;;;;5032082;28;20475;-44
2022/04/05 02:56:46;;;;;;;35.40;19.30;;;;;;;;;;5033468;28;20041;-45
2022/04/05 02:59:13;;;;;;;33.65;19.33;;;;;;;;;;5033426;28;20096;-45
2022/04/05 03:01:38;;;;;;;43.38;19.85;;;;;;;;;;5033173;28;20029;-45
2022/04/05 03:04:04;;;;;;;42.78;19.90;;;;;;;;;;5033169;28;20079;-44
2022/04/05 03:06:29;;;;;;;40.05;20.00;;;;;;;;;;5033346;28;20026;-44
2022/04/05 03:08:56;;;;;;;43.53;20.65;;;;;;;;;;5033383;28;20021;-45
2022/04/05 03:11:22;;;;;;;38.70;19.95;;;;;;;;;;5033195;28;20022;-44
2022/04/05 03:13:47;;;;;;;41.90;20.95;;;;;;;;;;5033238;28;20361;-44
2022/04/05 03:16:12;;;;;;;42.78;19.83;;;;;;;;;;5031747;28;20433;-45
2022/04/05 03:18:38;;;;;;;39.78;20.13;;;;;;;;;;5032974;28;20480;-46
2022/04/05 03:21:04;;;;;;;41.38;22.08;;;;;;;;;;5033197;28;20027;-45
2022/04/05 03:23:29;;;;;;;38.53;20.40;;;;;;;;;;5033170;28;20028;-45
2022/04/05 03:25:54;;;;;;;40.05;21.80;;;;;;;;;;5033172;28;20072;-47
2022/04/05 03:28:20;;;;;;;40.00;20.60;;;;;;;;;;5032983;28;20108;-45
2022/04/05 03:30:47;;;;;;;41.60;19.90;;;;;;;;;;5032889;28;20100;-44
2022/04/05 03:33:12;;;;;;;42.53;20.15;;;;;;;;;;5032674;28;20068;-46
2022/04/05 03:35:38;;;;;;;38.08;19.60;;;;;;;;;;5032808;28;20476;-44
2022/04/05 03:38:03;;;;;;;37.55;19.85;;;;;;;;;;5031729;28;20115;-44
2022/04/05 03:40:28;;;;;;;32.92;18.90;;;;;;;;;;5033058;28;20021;-43
2022/04/05 03:42:54;;;;;;;37.47;19.42;;;;;;;;;;5032754;28;20472;-45
2022/04/05 03:45:19;;;;;;;47.00;20.08;;;;;;;;;;5032801;28;20029;-44
2022/04/05 03:47:44;;;;;;;40.10;19.70;;;;;;;;;;5035506;28;20025;-45
2022/04/05 03:50:09;;;;;;;39.58;19.55;;;;;;;;;;5035815;28;20021;-45
2022/04/05 03:52:35;;;;;;;39.20;19.05;;;;;;;;;;5036980;28;20112;-46
2022/04/05 03:55:00;;;;;;;38.97;19.80;;;;;;;;;;5035400;28;20401;-45
2022/04/05 03:57:25;;;;;;;36.85;19.77;;;;;;;;;;5036867;28;20053;-44
2022/04/05 03:59:51;;;;;;;35.05;18.83;;;;;;;;;;5036846;28;20376;-44
2022/04/05 04:02:17;;;;;;;40.72;19.55;;;;;;;;;;5036514;28;20022;-49
2022/04/05 04:04:42;;;;;;;39.85;20.50;;;;;;;;;;5036275;28;20087;-46
2022/04/05 04:07:07;;;;;;;39.20;19.50;;;;;;;;;;5036800;28;20021;-46
2022/04/05 04:09:33;;;;;;;39.80;19.83;;;;;;;;;;5036438;28;20362;-46
2022/04/05 04:11:58;;;;;;;34.30;19.30;;;;;;;;;;5036519;28;20152;-47
2022/04/05 04:14:23;;;;;;;37.55;19.85;;;;;;;;;;5036590;28;20017;-44
2022/04/05 04:16:49;;;;;;;39.55;19.42;;;;;;;;;;5036480;28;20668;-43
2022/04/05 04:19:14;;;;;;;32.80;18.83;;;;;;;;;;5036185;28;20013;-45
2022/04/05 04:21:39;;;;;;;34.25;18.98;;;;;;;;;;5036473;28;20386;-47
2022/04/05 04:24:05;;;;;;;32.47;18.50;;;;;;;;;;5036486;28;20083;-46
2022/04/05 04:26:30;;;;;;;34.78;20.70;;;;;;;;;;5036373;28;20028;-47
2022/04/05 04:28:57;;;;;;;44.90;19.17;;;;;;;;;;5036018;28;20025;-44
2022/04/05 04:31:23;;;;;;;39.08;19.95;;;;;;;;;;5036184;28;20072;-43
2022/04/05 04:33:48;;;;;;;33.67;18.25;;;;;;;;;;5035656;28;20022;-45
2022/04/05 04:36:13;;;;;;;38.70;18.85;;;;;;;;;;5036249;28;20521;-44
2022/04/05 04:38:39;;;;;;;32.25;18.27;;;;;;;;;;5036028;28;20059;-44
2022/04/05 04:41:04;;;;;;;35.33;18.55;;;;;;;;;;5035984;28;20445;-45
2022/04/05 04:43:29;;;;;;;37.80;17.83;;;;;;;;;;5035634;28;20048;-45
2022/04/05 04:45:55;;;;;;;38.05;19.27;;;;;;;;;;5035905;28;20033;-45
2022/04/05 04:48:21;;;;;;;33.35;17.73;;;;;;;;;;5035516;28;20024;-44
2022/04/05 04:50:49;;;;;;;34.63;17.77;;;;;;;;;;5035728;28;20143;-45
2022/04/05 04:53:15;;;;;;;35.25;17.42;;;;;;;;;;5034716;28;20155;-46
2022/04/05 04:55:40;;;;;;;39.53;18.85;;;;;;;;;;5035484;28;20505;-44
2022/04/05 04:58:06;;;;;;;32.92;18.02;;;;;;;;;;5035193;28;20030;-48
2022/04/05 05:00:31;;;;;;;36.92;19.63;;;;;;;;;;5034394;28;20084;-43
2022/04/05 05:02:56;;;;;;;42.22;19.98;;;;;;;;;;5035408;28;20018;-47
2022/04/05 05:05:22;;;;;;;51.58;20.52;;;;;;;;;;5035185;28;20461;-44
2022/04/05 05:07:49;;;;;;;35.17;19.20;;;;;;;;;;5035431;28;20025;-44
2022/04/05 05:10:15;;;;;;;35.63;19.52;;;;;;;;;;5035426;28;20516;-45
2022/04/05 05:12:41;;;;;;;40.20;21.15;;;;;;;;;;5035876;28;20420;-45
2022/04/05 05:15:10;;;;;;;41.03;20.10;;;;;;;;;;5035355;28;20025;-45
2022/04/05 05:17:35;;;;;;;;;;;;;;;;;;5035611;28;20064;-45
2022/04/05 05:20:01;;;;;;;36.30;18.10;;;;;;;;;;5035171;28;19940;-44
2022/04/05 05:22:26;;;;;;;35.65;17.60;;;;;;;;;;5035254;28;20021;-44
2022/04/05 05:24:51;;;;;;;36.17;16.73;;;;;;;;;;5034944;28;20036;-46
2022/04/05 05:27:17;;;;;;;26.58;15.05;;;;;;;;;;5035151;28;20054;-47
2022/04/05 05:29:42;;;;;;;33.13;16.65;;;;;;;;;;5035102;28;20021;-44
2022/04/05 05:32:07;;;;;;;35.17;17.85;;;;;;;;;;5034901;28;20465;-43
2022/04/05 05:34:33;;;;;;;35.92;18.60;;;;;;;;;;5034699;28;20029;-45
2022/04/05 05:36:58;;;;;;;28.83;16.48;;;;;;;;;;5034406;28;20021;-45
2022/04/05 05:39:23;;;;;;;30.60;16.02;;;;;;;;;;5042108;28;20021;-43
2022/04/05 05:41:49;;;;;;;29.48;15.65;;;;;;;;;;5053250;28;20021;-43
2022/04/05 05:44:15;;;;;;;24.98;15.82;;;;;;;;;;5054769;28;20024;-43
2022/04/05 05:46:40;;;;;;;26.83;14.32;;;;;;;;;;5054634;28;20025;-45
2022/04/05 05:49:05;;;;;;;30.15;14.70;;;;;;;;;;5054541;28;20407;-43
2022/04/05 05:51:31;;;;;;;27.02;14.68;;;;;;;;;;5054433;28;20108;-44
2022/04/05 05:53:56;;;;;;;142.48;18.80;;;;;;;;;;5050659;28;20040;-46
2022/04/05 05:56:21;;;;;;;25.35;14.57;;;;;;;;;;5034434;28;20079;-44
2022/04/05 05:58:50;;;;;;;26.70;14.63;;;;;;;;;;5033557;28;20028;-45
2022/04/05 06:01:16;;;;;;;26.33;14.05;;;;;;;;;;5032253;28;20026;-42
2022/04/05 06:03:41;;;;;;;28.05;14.40;;;;;;;;;;5028784;28;20063;-43
2022/04/05 06:06:07;;;;;;;28.08;14.40;;;;;;;;;;5025810;28;20478;-42
2022/04/05 06:08:32;;;;;;;27.05;13.77;;;;;;;;;;5022025;28;20049;-41
2022/04/05 06:10:57;;;;;;;24.02;13.32;;;;;;;;;;5042534;28;20052;-41
2022/04/05 06:13:23;;;;;;;23.77;13.85;;;;;;;;;;5032935;28;20420;-42
2022/04/05 06:15:50;;;;;;;21.33;10.30;;;;;;;;;;5038544;28;20059;-42
2022/04/05 06:18:15;;;;;;;22.25;12.90;;;;;;;;;;5022783;28;20046;-43
2022/04/05 06:20:40;;;;;;;20.27;11.85;;;;;;;;;;5030264;28;20448;-42
2022/04/05 06:23:05;;;;;;;13.18;10.13;;;;;;;;;;5030940;28;20021;-41
2022/04/05 06:25:33;;;;;;;14.25;10.25;;;;;;;;;;5033005;28;20488;-41
2022/04/05 06:28:02;;;;;;;19.00;10.35;;;;;;;;;;5025626;28;20018;-42
2022/04/05 06:30:28;;;;;;;17.75;10.57;;;;;;;;;;5037654;28;20105;-42
2022/04/05 06:33:12;;;;;;;16.70;10.88;;;;;;;;;;5036973;28;20092;-42
2022/04/05 06:35:45;;;;;;;21.65;10.73;;;;;;;;;;5034059;28;20083;-41
2022/04/05 06:38:10;;;;;;;15.07;9.95;;;;;;;;;;5040278;28;20030;-41
2022/04/05 06:40:36;;;;;;;19.17;9.80;;;;;;;;;;5032404;28;20075;-41
2022/04/05 06:43:02;;;;;;;18.67;9.48;;;;;;;;;;5032958;28;20163;-41
2022/04/05 06:45:27;;;;;;;16.63;9.35;;;;;;;;;;5027977;28;20033;-44
2022/04/05 06:47:53;;;;;;;14.57;9.48;;;;;;;;;;5025901;28;20021;-42
2022/04/05 06:50:24;;;;;;;17.02;9.98;;;;;;;;;;5041338;28;20030;-44
2022/04/05 06:52:50;;;;;;;17.80;9.90;;;;;;;;;;5042371;28;20105;-43
2022/04/05 06:55:15;;;;;;;13.57;9.70;;;;;;;;;;5034653;28;20125;-41
2022/04/05 06:57:42;;;;;;;20.10;9.40;;;;;;;;;;5034732;28;20041;-41
2022/04/05 07:00:08;;;;;;;37.70;13.63;;;;;;;;;;5029694;28;20709;-42
2022/04/05 07:02:33;;;;;;;20.80;13.13;;;;;;;;;;5030572;28;20024;-41
2022/04/05 07:04:59;;;;;;;44.75;25.55;;;;;;;;;;5027573;28;20404;-41
2022/04/05 07:07:24;;;;;;;42.47;23.08;;;;;;;;;;5036978;28;20022;-43
2022/04/05 07:09:49;;;;;;;26.63;13.90;;;;;;;;;;5027238;28;20017;-41
2022/04/05 07:12:15;;;;;;;34.60;18.98;;;;;;;;;;5029231;28;20370;-41
2022/04/05 07:14:40;;;;;;;24.60;11.95;;;;;;;;;;5028606;28;20040;-46
2022/04/05 07:17:05;;;;;;;20.23;11.07;;;;;;;;;;5030867;28;20034;-43
2022/04/05 07:19:31;;;;;;;36.97;16.48;;;;;;;;;;5028519;28;20104;-45
2022/04/05 07:21:56;;;;;;;16.85;8.80;;;;;;;;;;5034653;28;20115;-41
2022/04/05 07:24:21;;;;;;;15.77;10.70;;;;;;;;;;5027746;28;20017;-42
2022/04/05 07:26:47;;;;;;;17.10;11.20;;;;;;;;;;5027676;28;20044;-42
2022/04/05 07:29:12;;;;;;;39.03;19.17;;;;;;;;;;5021806;28;20021;-50
2022/04/05 07:31:38;;;;;;;14.48;9.85;;;;;;;;;;5023322;28;20042;-47
2022/04/05 07:34:03;;;;;;;21.95;10.05;;;;;;;;;;5025277;28;20014;-50
2022/04/05 07:36:29;;;;;;;11.23;7.75;;;;;;;;;;5022795;28;20384;-49
2022/04/05 07:38:55;;;;;;;14.48;8.65;;;;;;;;;;5027010;28;20571;-48
2022/04/05 07:41:20;;;;;;;20.55;7.60;;;;;;;;;;5034714;28;20059;-41
2022/04/05 07:43:45;;;;;;;10.00;7.38;;;;;;;;;;5030397;28;20013;-41
2022/04/05 07:46:11;;;;;;;20.23;11.10;;;;;;;;;;5024560;28;20029;-42
2022/04/05 07:48:37;;;;;;;27.00;14.70;;;;;;;;;;5023967;28;20467;-42
2022/04/05 07:51:02;;;;;;;15.98;10.07;;;;;;;;;;5025549;28;20022;-42
2022/04/05 07:53:27;;;;;;;15.70;10.57;;;;;;;;;;5030243;28;20067;-42
2022/04/05 07:55:54;;;;;;;12.43;8.02;;;;;;;;;;5025208;28;20056;-45
2022/04/05 07:58:20;;;;;;;18.90;8.95;;;;;;;;;;5033624;28;20089;-44
2022/04/05 08:00:45;;;;;;;9.43;6.82;;;;;;;;;;5033469;28;20436;-45
2022/04/05 08:03:10;;;;;;;15.77;8.30;;;;;;;;;;5028985;28;20024;-42
2022/04/05 08:05:35;;;;;;;16.02;9.40;;;;;;;;;;5029691;28;20140;-42
2022/04/05 08:08:01;;;;;;;12.25;8.68;;;;;;;;;;5028080;28;20491;-37
2022/04/05 08:10:26;;;;;;;9.68;7.18;;;;;;;;;;5029459;28;20025;-41
2022/04/05 08:12:51;;;;;;;14.85;8.25;;;;;;;;;;5030517;28;20072;-41
2022/04/05 08:15:18;;;;;;;11.15;7.50;;;;;;;;;;5030474;28;20028;-43
2022/04/05 08:17:44;;;;;;;13.57;7.70;;;;;;;;;;5034205;28;20029;-42
2022/04/05 08:20:10;;;;;;;11.85;7.20;;;;;;;;;;5037206;28;20017;-42
2022/04/05 08:22:35;;;;;;;13.65;6.63;;;;;;;;;;5036191;28;20112;-45
2022/04/05 08:25:01;;;;;;;13.50;7.63;;;;;;;;;;5034431;28;20034;-42
2022/04/05 08:27:26;;;;;;;14.35;7.35;;;;;;;;;;5028384;28;20096;-42
2022/04/05 08:29:51;;;;;;;8.40;7.18;;;;;;;;;;5036337;28;20064;-45
2022/04/05 08:32:17;;;;;;;10.68;7.85;;;;;;;;;;5031742;28;20492;-45
2022/04/05 08:34:42;;;;;;;9.38;6.28;;;;;;;;;;5039760;28;20078;-41
2022/04/05 08:37:08;;;;;;;10.73;6.93;;;;;;;;;;5032935;28;20075;-44
2022/04/05 08:39:34;;;;;;;10.05;6.70;;;;;;;;;;5044157;28;20020;-43
2022/04/05 08:41:59;;;;;;;13.32;6.75;;;;;;;;;;5037414;28;20045;-41
2022/04/05 08:44:24;;;;;;;10.63;7.00;;;;;;;;;;5036088;28;20020;-42
2022/04/05 08:46:50;;;;;;;12.40;6.70;;;;;;;;;;5033767;28;20040;-41
2022/04/05 08:49:15;;;;;;;10.55;6.68;;;;;;;;;;5033589;28;20017;-41
2022/04/05 08:51:41;;;;;;;8.30;6.47;;;;;;;;;;5032067;28;20365;-40
2022/04/05 08:54:06;;;;;;;9.23;6.03;;;;;;;;;;5030803;28;20072;-43
2022/04/05 08:56:31;;;;;;;9.98;7.00;;;;;;;;;;5022597;28;20042;-41
2022/04/05 08:58:57;;;;;;;9.43;6.20;;;;;;;;;;5022916;28;20025;-44
2022/04/05 09:01:23;;;;;;;8.38;6.35;;;;;;;;;;5034694;28;20048;-42
2022/04/05 09:03:48;;;;;;;10.73;7.03;;;;;;;;;;5035058;28;20094;-42
2022/04/05 09:06:23;;;;;;;8.15;6.78;;;;;;;;;;5033179;28;20412;-42
2022/04/05 09:08:49;;;;;;;10.65;7.40;;;;;;;;;;5033573;28;20037;-41
2022/04/05 09:11:15;;;;;;;9.63;6.72;;;;;;;;;;5041519;28;20009;-41
2022/04/05 09:13:40;;;;;;;11.00;6.88;;;;;;;;;;5042235;28;20026;-41
2022/04/05 09:16:08;;;;;;;9.80;6.80;;;;;;;;;;5034095;28;20451;-41
2022/04/05 09:18:37;;;;;;;10.18;6.78;;;;;;;;;;5034576;28;20017;-40
2022/04/05 09:21:04;;;;;;;10.25;5.88;;;;;;;;;;5033553;28;20044;-40
2022/04/05 09:23:31;;;;;;;9.07;6.93;;;;;;;;;;5031773;28;20029;-40
2022/04/05 09:25:57;;;;;;;7.95;5.90;;;;;;;;;;5018448;28;20033;-40
2022/04/05 09:28:30;;;;;;;9.75;6.40;;;;;;;;;;5025885;28;20453;-40
2022/04/05 09:30:59;;;;;;;15.00;7.65;;;;;;;;;;5033970;28;20372;-40
2022/04/05 09:33:24;;;;;;;10.98;6.88;;;;;;;;;;5030095;28;20017;-40
2022/04/05 09:35:53;;;;;;;7.25;5.78;;;;;;;;;;5034665;28;20299;-40
2022/04/05 09:38:20;;;;;;;9.85;5.90;;;;;;;;;;5034372;28;20092;-40
2022/04/05 09:40:50;;;;;;;13.15;6.63;;;;;;;;;;5034212;28;20021;-40
2022/04/05 09:43:15;;;;;;;7.65;5.90;;;;;;;;;;5037117;28;20017;-40
2022/04/05 09:45:43;;;;;;;9.13;6.82;;;;;;;;;;5021315;28;20118;-41
2022/04/05 09:48:09;;;;;;;9.95;6.00;;;;;;;;;;5023075;28;20022;-41
2022/04/05 09:50:53;;;;;;;9.27;6.38;;;;;;;;;;5026576;28;20018;-42
2022/04/05 09:53:19;;;;;;;9.65;6.30;;;;;;;;;;5023056;28;20032;-43
2022/04/05 09:55:44;;;;;;;9.65;6.15;;;;;;;;;;5027885;28;20045;-40
2022/04/05 09:58:13;;;;;;;8.38;6.03;;;;;;;;;;5033000;28;20421;-40
2022/04/05 10:00:39;;;;;;;8.82;5.82;;;;;;;;;;5032185;28;20026;-39
2022/04/05 10:03:06;;;;;;;8.35;5.55;;;;;;;;;;5027273;28;20030;-39
2022/04/05 10:05:33;;;;;;;11.35;5.00;;;;;;;;;;5026370;28;20477;-39
2022/04/05 10:07:59;;;;;;;7.75;5.28;;;;;;;;;;5032837;28;20163;-39
2022/04/05 10:10:24;;;;;;;8.38;5.68;;;;;;;;;;5033185;28;20512;-39
2022/04/05 10:12:50;;;;;;;8.73;5.25;;;;;;;;;;5037374;28;20101;-39
2022/04/05 10:15:15;;;;;;;7.28;6.07;;;;;;;;;;5033904;28;20018;-39
2022/04/05 10:17:47;;;;;;;7.93;5.85;;;;;;;;;;5036912;28;20441;-40
2022/04/05 10:20:12;;;;;;;10.23;6.45;;;;;;;;;;5035716;28;20021;-43
2022/04/05 10:22:38;;;;;;;7.55;6.25;;;;;;;;;;5029888;28;20052;-40
2022/04/05 10:25:04;;;;;;;7.63;5.40;;;;;;;;;;5031511;28;20161;-40
2022/04/05 10:27:29;;;;;;;8.48;5.55;;;;;;;;;;5031773;28;20022;-40
2022/04/05 10:29:58;;;;;;;8.25;5.82;;;;;;;;;;5032706;28;20074;-40
2022/04/05 10:32:32;;;;;;;67.82;21.63;;;;;;;;;;5031032;28;20021;-40
2022/04/05 10:35:08;;;;;;;13.40;8.60;;;;;;;;;;5035894;28;20025;-40
2022/04/05 10:37:33;;;;;;;36.05;16.05;;;;;;;;;;5030860;28;20030;-40
2022/04/05 10:39:59;;;;;;;7.15;5.70;;;;;;;;;;5035470;28;20071;-41
2022/04/05 10:42:25;;;;;;;12.97;7.70;;;;;;;;;;5029428;28;20049;-41
2022/04/05 10:45:09;;;;;;;7.13;5.65;;;;;;;;;;5031242;28;20302;-41
2022/04/05 10:47:53;;;;;;;7.68;5.95;;;;;;;;;;5030901;28;20540;-40
2022/04/05 10:50:19;;;;;;;10.50;5.00;;;;;;;;;;5029954;28;20657;-41
2022/04/05 10:52:45;;;;;;;11.98;4.60;;;;;;;;;;5030429;28;20068;-43
2022/04/05 10:55:12;;;;;;;7.68;4.30;;;;;;;;;;5030563;28;20153;-40
2022/04/05 10:57:38;;;;;;;7.03;5.03;;;;;;;;;;5040702;28;20075;-41
2022/04/05 11:00:04;;;;;;;7.53;5.03;;;;;;;;;;5031754;28;20021;-42
2022/04/05 11:02:35;;;;;;;9.23;5.55;;;;;;;;;;5032387;28;20029;-43
2022/04/05 11:05:21;;;;;;;6.45;5.32;;;;;;;;;;5031394;28;20079;-41
2022/04/05 11:07:52;;;;;;;8.55;5.35;;;;;;;;;;5028418;28;20124;-45
2022/04/05 11:10:21;;;;;;;9.27;5.15;;;;;;;;;;5029813;28;20037;-41
2022/04/05 11:12:47;;;;;;;7.32;5.22;;;;;;;;;;5024094;28;20488;-41
2022/04/05 11:15:15;;;;;;;12.35;5.80;;;;;;;;;;5031501;28;20017;-43
2022/04/05 11:17:41;;;;;;;8.30;5.50;;;;;;;;;;5032426;28;20013;-42
2022/04/05 11:20:08;;;;;;;9.40;5.82;;;;;;;;;;5031595;28;20526;-41
2022/04/05 11:22:35;;;;;;;12.30;5.93;;;;;;;;;;5032060;28;20105;-42
2022/04/05 11:25:04;;;;;;;17.58;6.43;;;;;;;;;;5028933;28;20476;-44
2022/04/05 11:27:33;;;;;;;6.65;5.32;;;;;;;;;;5029181;28;20101;-39
2022/04/05 11:30:37;;;;;;;8.10;5.77;;;;;;;;;;5029175;28;20158;-42
2022/04/05 11:33:19;;;;;;;7.25;6.07;;;;;;;;;;5030548;28;20041;-45
2022/04/05 11:35:44;;;;;;;8.60;6.57;;;;;;;;;;5030100;28;20018;-42
2022/04/05 11:38:26;;;;;;;8.02;6.70;;;;;;;;;;5030483;28;20032;-42
2022/04/05 11:40:58;;;;;;;9.35;6.32;;;;;;;;;;5030316;28;20448;-43
2022/04/05 11:43:24;;;;;;;9.40;6.13;;;;;;;;;;5022077;28;20075;-45
2022/04/05 11:45:54;;;;;;;8.23;5.25;;;;;;;;;;5029136;28;20036;-45
2022/04/05 11:48:20;;;;;;;6.05;4.05;;;;;;;;;;5033125;28;20036;-42
2022/04/05 11:50:46;;;;;;;12.80;3.92;;;;;;;;;;5035081;28;20029;-43
2022/04/05 11:53:22;;;;;;;6.32;4.43;;;;;;;;;;5035047;28;20025;-40
2022/04/05 11:56:02;;;;;;;7.47;4.75;;;;;;;;;;5025084;28;20061;-40
2022/04/05 11:58:30;;;;;;;11.20;4.78;;;;;;;;;;5025773;28;20088;-41
2022/04/05 12:00:56;;;;;;;8.98;4.97;;;;;;;;;;5023901;28;20052;-42
2022/04/05 12:03:21;;;;;;;8.10;4.70;;;;;;;;;;5025841;28;20472;-41
2022/04/05 12:05:46;;;;;;;10.23;6.13;;;;;;;;;;5030668;28;20048;-40
2022/04/05 12:08:15;;;;;;;9.25;5.55;;;;;;;;;;5034016;28;20025;-40
2022/04/05 12:10:41;;;;;;;8.30;5.63;;;;;;;;;;5035468;28;20018;-44
2022/04/05 12:13:07;;;;;;;6.63;4.32;;;;;;;;;;5034366;28;20075;-42
2022/04/05 12:15:33;;;;;;;10.75;5.72;;;;;;;;;;5035709;28;20095;-41
2022/04/05 12:18:18;;;;;;;8.15;4.45;;;;;;;;;;5040386;28;20017;-40
2022/04/05 12:20:55;;;;;;;6.95;5.15;;;;;;;;;;5033470;28;20079;-43
2022/04/05 12:23:21;;;;;;;11.07;5.38;;;;;;;;;;5026565;28;20500;-43
2022/04/05 12:26:03;;;;;;;9.75;6.60;;;;;;;;;;5035057;28;20037;-41
2022/04/05 12:28:28;;;;;;;7.20;5.63;;;;;;;;;;5026513;28;20032;-40
2022/04/05 12:31:02;;;;;;;9.30;4.40;;;;;;;;;;5032287;28;20025;-41
2022/04/05 12:33:27;;;;;;;9.45;6.57;;;;;;;;;;5031811;28;20864;-40
2022/04/05 12:35:53;;;;;;;8.73;4.28;;;;;;;;;;5034130;28;20028;-39
2022/04/05 12:38:18;;;;;;;7.00;3.47;;;;;;;;;;5032363;28;20032;-40
2022/04/05 12:40:43;;;;;;;5.95;3.30;;;;;;;;;;5035031;28;20044;-40
2022/04/05 12:43:13;;;;;;;8.38;3.10;;;;;;;;;;5032635;28;20028;-39
2022/04/05 12:45:39;;;;;;;7.85;4.03;;;;;;;;;;5032235;28;20050;-39
2022/04/05 12:48:11;;;;;;;6.97;3.65;;;;;;;;;;5034363;28;20511;-39
2022/04/05 12:50:55;;;;;;;7.32;3.92;;;;;;;;;;5031965;28;20032;-40
2022/04/05 12:53:25;;;;;;;6.05;3.00;;;;;;;;;;5031993;28;20036;-44
2022/04/05 12:56:09;;;;;;;3.92;3.22;;;;;;;;;;5018573;28;20046;-40
2022/04/05 12:58:36;;;;;;;7.85;4.75;;;;;;;;;;5033325;28;20021;-41
2022/04/05 13:01:01;;;;;;;6.20;4.57;;;;;;;;;;5033292;28;20029;-40
2022/04/05 13:03:31;;;;;;;4.80;3.33;;;;;;;;;;5033628;28;20116;-40
2022/04/05 13:08:41;;;;;;;2.88;2.55;;;;;;;;;;5028910;28;20033;-39
2022/04/05 13:11:25;;;;;;;5.32;2.45;;;;;;;;;;5032194;28;20029;-42
2022/04/05 13:13:59;;;;;;;6.78;2.40;;;;;;;;;;5031528;28;20029;-39
2022/04/05 13:16:25;;;;;;;6.35;3.47;;;;;;;;;;5034228;28;20155;-39
2022/04/05 13:18:51;;;;;;;4.80;2.83;;;;;;;;;;5034411;28;20025;-39
2022/04/05 13:21:17;;;;;;;3.88;3.05;;;;;;;;;;5033149;28;20037;-39
2022/04/05 13:23:57;;;;;;;5.88;3.10;;;;;;;;;;5033554;28;20101;-39
2022/04/05 13:26:22;;;;;;;;;;;;;;;;;;5031492;28;20494;-41
2022/04/05 13:28:48;;;;;;;3.30;2.50;;;;;;;;;;5030939;28;20007;-41
2022/04/05 13:31:15;;;;;;;4.20;2.60;;;;;;;;;;5032969;28;20131;-39
2022/04/05 13:33:41;;;;;;;6.35;2.95;;;;;;;;;;5031330;28;20477;-40
2022/04/05 13:36:07;;;;;;;5.43;2.50;;;;;;;;;;5032674;28;20036;-41
2022/04/05 13:38:33;;;;;;;4.80;2.75;;;;;;;;;;5032994;28;20029;-42
2022/04/05 13:40:58;;;;;;;5.78;2.90;;;;;;;;;;5033145;28;20522;-40
2022/04/05 13:43:24;;;;;;;3.95;2.75;;;;;;;;;;5032529;28;20018;-40
2022/04/05 13:45:50;;;;;;;2.70;2.45;;;;;;;;;;5032311;28;20045;-39
2022/04/05 13:48:15;;;;;;;4.57;2.65;;;;;;;;;;5030913;28;20075;-39
2022/04/05 13:50:40;;;;;;;5.80;3.28;;;;;;;;;;5033908;28;20021;-38
2022/04/05 13:53:06;;;;;;;6.60;2.70;;;;;;;;;;5033597;28;20096;-40
2022/04/05 13:55:31;;;;;;;5.90;2.30;;;;;;;;;;5029793;28;20049;-40
2022/04/05 13:57:57;;;;;;;4.18;2.88;;;;;;;;;;5030595;28;20025;-40
2022/04/05 14:00:23;;;;;;;3.90;2.45;;;;;;;;;;5030332;28;20053;-40
2022/04/05 14:02:48;;;;;;;8.95;5.03;;;;;;;;;;5030657;28;20017;-40
2022/04/05 14:05:16;;;;;;;9.18;3.47;;;;;;;;;;5030553;28;20061;-39
2022/04/05 14:07:42;;;;;;;4.03;3.20;;;;;;;;;;5037367;28;20024;-47
2022/04/05 14:10:08;;;;;;;5.80;3.25;;;;;;;;;;5031009;28;20025;-41
2022/04/05 14:12:33;;;;;;;3.10;2.75;;;;;;;;;;5030819;28;20355;-40
2022/04/05 14:14:59;;;;;;;4.28;3.30;;;;;;;;;;5030978;28;20060;-41
2022/04/05 14:17:24;;;;;;;4.50;2.90;;;;;;;;;;5030751;28;20025;-40
2022/04/05 14:19:49;;;;;;;8.40;3.50;;;;;;;;;;5031778;28;20025;-41
2022/04/05 14:22:16;;;;;;;6.00;3.35;;;;;;;;;;5024111;28;20021;-41
2022/04/05 14:24:41;;;;;;;4.15;3.40;;;;;;;;;;5038023;28;20036;-41
2022/04/05 14:27:06;;;;;;;5.60;3.40;;;;;;;;;;5034279;28;20021;-42
2022/04/05 14:29:32;;;;;;;4.85;3.95;;;;;;;;;;5032256;28;20021;-41